Ware, MA (01082)

10:21 PM EDT on March 30, 2015 (GMT -0400)
Sabin Street (South) | | Change Station
CLOSE
Current Station
Personal Weather Station
Location: Belchertown, MA
Elevation: 656 ft
Nearby Weather Stations

Elev 656 ft 42.26 °N, 72.36 °W | Updated 59 minutes ago

Clear
Clear
36.8 °F
Feels Like 37 °F
N
1.3
Wind Variable Wind from NW
Gusts 3.8 mph

Today
High -- | Low -- °F
--% Chance of Precip.
Yesterday
High -- | Low -- °F
Precip. -- in
6:35 AM 7:12 PM
Waxing Gibbous, 83% visible
Pressure 29.76 in
Visibility 10.0 miles
Clouds Clear
Windchill 37 °F
Dew Point 30 °F
Humidity 74%
Rainfall -999.00 in
Snow Depth Not available.
UV 0 out of 12
Pollen 7.20 out of 12
Air Quality Not available.
Flu Activity Not available.
METAR KCEF 310158Z AUTO 24006KT 10SM CLR 03/M03 A2976 RMK AO2 SLPNO T00261028

More Conditions Fewer Conditions

Pressure 29.76 in
Visibility 10.0 miles
Clouds Clear
Windchill 37 °F
Dew Point 30 °F
Humidity 74%
Rainfall -999.00 in
Snow Depth Not available.
UV 0 out of 12
Pollen 7.20 out of 12
Air Quality Not available.
Flu Activity Not available.
METAR KCEF 310158Z AUTO 24006KT 10SM CLR 03/M03 A2976 RMK AO2 SLPNO T00261028

More Conditions Fewer Conditions

10-Day Weather Forecast

Almanac

Astronomy

Mar. 30, 2015 Rise Set
Actual Time
Civil Twilight
Nautical Twilight
Astronomical Twilight
Moon
Length of Visible Light
Length of Day
Tomorrow will be .
, % of the Moon is Illuminated

Today's Extremes

State Highs State Lows

Community

WunderPhotos

Upload Photos

1,809,665 photos uploaded!

WunderBlogs® & News

Nearby

Air Quality

  Air Quality AQ Index Pollutant
Not available.

Snow Depth

Station Depth Elevation

Earthquake Activity

City Distance Mag. Time & Date
Minimum magnitude displayed is 2.5.

Coastal Water Temperatures

Place Temperature

Stations

Nearby Weather Stations

Station Location Temp. Windchill Dew Point Humidity Wind Precip. Elev Updated Type